| time (UTC) | temp C | wind direction | speed KPH | gust KPH | rain 1hr cm | rain 24hr cm | rain mn cm | humidity % | barometer mb |
| 20260507083519 | -2 | 0.0 | 0.0 | 0.00 | 0.00 | 0.00 | 82 | ||
| 20260507082528 | -2 | 0.0 | 0.0 | 0.00 | 0.00 | 0.00 | 82 | ||
| 20260507081519 | -2 | 0.0 | 0.0 | 0.00 | 0.00 | 0.00 | 82 | ||
| 20260507080527 | -2 | 0.0 | 0.0 | 0.00 | 0.00 | 0.00 | 82 | ||
| 20260507075519 | -2 | 0.0 | 0.0 | 0.00 | 0.00 | 0.00 | 82 | ||
| 20260507074527 | -2 | 0.0 | 0.0 | 0.00 | 0.00 | 0.00 | 81 | ||
| 20260507073519 | -2 | 0.0 | 0.0 | 0.00 | 0.00 | 0.00 | 80 | ||
| 20260507072528 | -2 | 0.0 | 0.0 | 0.00 | 0.00 | 0.00 | 80 | ||
| 20260507071519 | -2 | 0.0 | 0.0 | 0.00 | 0.00 | 0.00 | 79 | ||
| 20260507070528 | -1 | 0.0 | 0.0 | 0.00 | 0.00 | 0.00 | 78 | ||
| 20260507065519 | -1 | 0.0 | 0.0 | 0.00 | 0.00 | 0.00 | 77 | ||
| 20260507064527 | -1 | 0.0 | 0.0 | 0.00 | 0.00 | 0.00 | 76 | ||
| 20260507063556 | -1 | 0.0 | 0.0 | 0.00 | 0.00 | 0.00 | 76 | ||
| 20260507062527 | 0 | 0.0 | 0.0 | 0.00 | 0.00 | 0.00 | 73 | ||
| 20260507061520 | 0 | 0.0 | 0.0 | 0.00 | 0.00 | 0.00 | 72 | ||
| 20260507060528 | 0 | 0.0 | 0.0 | 0.00 | 0.00 | 0.00 | 72 | ||
| 20260507055541 | 0 | 0.0 | 0.0 | 0.00 | 0.00 | 0.00 | 71 | ||
| 20260507054528 | 0 | 0.0 | 0.0 | 0.00 | 0.00 | 0.00 | 69 | ||
| 20260507053520 | 1 | 0.0 | 0.0 | 0.00 | 0.00 | 0.00 | 68 | ||
| 20260507052528 | 1 | 227 | 0.0 | 1.6 | 0.00 | 0.00 | 0.00 | 67 | |
| 20260507051522 | 2 | 0.0 | 0.0 | 0.00 | 0.00 | 0.00 | 65 | ||
| 20260507050528 | 2 | 232 | 0.0 | 1.6 | 0.00 | 0.00 | 0.00 | 64 | |
| 20260507045520 | 2 | 232 | 0.0 | 1.6 | 0.00 | 0.00 | 0.00 | 65 | |
| 20260507044528 | 2 | 228 | 0.0 | 1.6 | 0.00 | 0.00 | 0.00 | 66 | |
| 20260507043521 | 2 | 232 | 0.0 | 1.6 | 0.00 | 0.00 | 0.00 | 65 | |
| 20260507042528 | 2 | 230 | 0.0 | 1.6 | 0.00 | 0.00 | 0.00 | 65 | |
| 20260507041520 | 2 | 0.0 | 0.0 | 0.00 | 0.00 | 0.00 | 65 | ||
| 20260507040534 | 2 | 224 | 0.0 | 1.6 | 0.00 | 0.00 | 0.00 | 65 | |
| 20260507035520 | 2 | 0.0 | 0.0 | 0.00 | 0.00 | 0.00 | 66 | ||
| 20260507034528 | 2 | 231 | 0.0 | 1.6 | 0.00 | 0.00 | 0.00 | 65 | |
| 20260507033520 | 2 | 0.0 | 0.0 | 0.00 | 0.00 | 0.00 | 64 | ||
| 20260507032530 | 2 | 0.0 | 0.0 | 0.00 | 0.00 | 0.00 | 65 | ||
| 20260507031521 | 2 | 0.0 | 0.0 | 0.00 | 0.00 | 0.00 | 63 | ||
| 20260507030528 | 2 | 0.0 | 0.0 | 0.00 | 0.00 | 0.00 | 63 | ||
| 20260507025520 | 2 | 0.0 | 0.0 | 0.00 | 0.00 | 0.00 | 62 | ||
| 20260507024535 | 2 | 0.0 | 0.0 | 0.00 | 0.00 | 0.00 | 62 | ||
| 20260507023520 | 3 | 0.0 | 0.0 | 0.00 | 0.00 | 0.00 | 62 | ||
| 20260507022528 | 3 | 0.0 | 0.0 | 0.00 | 0.00 | 0.00 | 62 | ||
| 20260507021520 | 3 | 0.0 | 0.0 | 0.00 | 0.00 | 0.00 | 61 | ||
| 20260507020528 | 3 | 0.0 | 0.0 | 0.00 | 0.00 | 0.00 | 61 | ||
| 20260507015542 | 3 | 237 | 0.0 | 1.6 | 0.00 | 0.00 | 0.00 | 60 | |
| 20260507014530 | 3 | 0.0 | 0.0 | 0.00 | 0.00 | 0.00 | 59 | ||
| 20260507013541 | 3 | 0.0 | 0.0 | 0.00 | 0.00 | 0.00 | 58 | ||
| 20260507012528 | 3 | 227 | 0.0 | 1.6 | 0.00 | 0.00 | 0.00 | 58 | |
| 20260507011600 | 3 | 0.0 | 0.0 | 0.00 | 0.00 | 0.00 | 57 | ||
| 20260507010528 | 3 | 250 | 0.0 | 1.6 | 0.00 | 0.00 | 0.00 | 57 | |
| 20260507005520 | 3 | 268 | 0.0 | 1.6 | 0.00 | 0.00 | 0.00 | 56 | |
| 20260507004528 | 3 | 235 | 0.0 | 8.0 | 0.00 | 0.00 | 0.00 | 55 | |
| 20260507003558 | 4 | 227 | 0.0 | 3.2 | 0.00 | 0.00 | 0.00 | 55 | |
| 20260507002530 | 4 | 272 | 1.6 | 4.8 | 0.00 | 0.00 | 0.00 | 55 | |
| 20260507001520 | 4 | 267 | 0.0 | 3.2 | 0.00 | 0.00 | 0.00 | 54 | |
| 20260507000528 | 4 | 232 | 0.0 | 3.2 | 0.00 | 0.00 | 0.00 | 55 | |
| 20260506235522 | 4 | 303 | 1.6 | 8.0 | 0.00 | 0.00 | 0.00 | 54 | |
| 20260506234529 | 4 | 232 | 1.6 | 4.8 | 0.00 | 0.00 | 0.00 | 54 | |
| 20260506233520 | 4 | 254 | 3.2 | 8.0 | 0.00 | 0.00 | 0.00 | 54 | |
| 20260506232529 | 4 | 290 | 1.6 | 4.8 | 0.00 | 0.00 | 0.00 | 54 | |
| 20260506231520 | 4 | 244 | 1.6 | 9.7 | 0.00 | 0.00 | 0.00 | 54 | |
| 20260506230529 | 4 | 264 | 3.2 | 4.8 | 0.00 | 0.00 | 0.00 | 54 | |
| 20260506225521 | 5 | 242 | 1.6 | 8.0 | 0.00 | 0.00 | 0.00 | 53 | |
| 20260506224529 | 5 | 241 | 1.6 | 4.8 | 0.00 | 0.00 | 0.00 | 53 | |
| 20260506223541 | 5 | 277 | 1.6 | 4.8 | 0.00 | 0.00 | 0.00 | 52 | |
| 20260506222529 | 5 | 272 | 3.2 | 14.5 | 0.00 | 0.00 | 0.00 | 53 | |
| 20260506221521 | 5 | 248 | 1.6 | 8.0 | 0.00 | 0.00 | 0.00 | 54 | |
| 20260506220528 | 5 | 271 | 1.6 | 8.0 | 0.00 | 0.00 | 0.00 | 54 | |
| 20260506215521 | 4 | 233 | 1.6 | 8.0 | 0.00 | 0.00 | 0.00 | 56 | |
| 20260506214549 | 4 | 233 | 1.6 | 8.0 | 0.00 | 0.00 | 0.00 | 54 | |
| 20260506213521 | 5 | 231 | 1.6 | 3.2 | 0.00 | 0.00 | 0.00 | 55 | |
| 20260506212529 | 4 | 259 | 1.6 | 8.0 | 0.00 | 0.00 | 0.00 | 56 | |
| 20260506211521 | 4 | 257 | 1.6 | 8.0 | 0.00 | 0.00 | 0.00 | 56 | |
| 20260506210549 | 4 | 340 | 1.6 | 8.0 | 0.00 | 0.00 | 0.00 | 57 | |
| 20260506205521 | 4 | 274 | 1.6 | 8.0 | 0.00 | 0.00 | 0.00 | 56 | |
| 20260506204529 | 4 | 222 | 4.8 | 12.9 | 0.00 | 0.00 | 0.00 | 55 | |
| 20260506203541 | 5 | 228 | 3.2 | 11.3 | 0.00 | 0.00 | 0.00 | 54 | |
| 20260506202529 | 5 | 226 | 3.2 | 12.9 | 0.00 | 0.00 | 0.00 | 54 | |
| 20260506201621 | 6 | 219 | 1.6 | 8.0 | 0.00 | 0.00 | 0.00 | 53 | |
| 20260506200529 | 5 | 236 | 3.2 | 9.7 | 0.00 | 0.00 | 0.00 | 55 | |
| 20260506195521 | 6 | 299 | 1.6 | 4.8 | 0.00 | 0.00 | 0.00 | 52 | |
| 20260506194529 | 5 | 357 | 3.2 | 11.3 | 0.00 | 0.00 | 0.00 | 55 | |
| 20260506193523 | 5 | 307 | 4.8 | 11.3 | 0.00 | 0.00 | 0.00 | 53 | |
| 20260506192550 | 5 | 221 | 1.6 | 8.0 | 0.00 | 0.00 | 0.00 | 56 | |
| 20260506191521 | 5 | 260 | 3.2 | 12.9 | 0.00 | 0.00 | 0.00 | 52 | |
| 20260506190529 | 5 | 261 | 3.2 | 14.5 | 0.00 | 0.00 | 0.00 | 55 | |
| 20260506185541 | 5 | 244 | 3.2 | 9.7 | 0.00 | 0.00 | 0.00 | 53 | |
| 20260506184529 | 5 | 236 | 3.2 | 9.7 | 0.00 | 0.00 | 0.00 | 54 | |
| 20260506183521 | 5 | 268 | 3.2 | 9.7 | 0.00 | 0.00 | 0.00 | 53 | |
| 20260506182529 | 5 | 320 | 3.2 | 9.7 | 0.00 | 0.00 | 0.00 | 53 | |
| 20260506181521 | 4 | 242 | 3.2 | 11.3 | 0.00 | 0.00 | 0.00 | 56 | |
| 20260506180529 | 4 | 239 | 4.8 | 11.3 | 0.00 | 0.00 | 0.00 | 57 | |
| 20260506175521 | 4 | 313 | 3.2 | 9.7 | 0.00 | 0.00 | 0.00 | 55 | |
| 20260506174529 | 5 | 290 | 4.8 | 22.5 | 0.00 | 0.00 | 0.00 | 54 | |
| 20260506173521 | 4 | 313 | 3.2 | 9.7 | 0.00 | 0.00 | 0.00 | 56 | |
| 20260506172550 | 3 | 336 | 1.6 | 12.9 | 0.00 | 0.00 | 0.00 | 57 | |
| 20260506171521 | 3 | 244 | 3.2 | 9.7 | 0.00 | 0.00 | 0.00 | 54 | |
| 20260506170529 | 3 | 264 | 3.2 | 8.0 | 0.00 | 0.00 | 0.00 | 55 | |
| 20260506165521 | 3 | 247 | 3.2 | 11.3 | 0.00 | 0.00 | 0.00 | 56 | |
| 20260506164530 | 3 | 264 | 3.2 | 11.3 | 0.00 | 0.00 | 0.00 | 57 | |
| 20260506163521 | 3 | 316 | 3.2 | 8.0 | 0.00 | 0.00 | 0.00 | 56 | |
| 20260506162529 | 3 | 311 | 3.2 | 9.7 | 0.00 | 0.00 | 0.00 | 57 | |
| 20260506161521 | 3 | 281 | 3.2 | 9.7 | 0.00 | 0.00 | 0.00 | 58 | |
| 20260506160529 | 3 | 297 | 1.6 | 9.7 | 0.00 | 0.00 | 0.00 | 61 | |
| 20260506155522 | 2 | 245 | 1.6 | 4.8 | 0.00 | 0.00 | 0.00 | 62 | |
| 20260506154530 | 2 | 247 | 1.6 | 8.0 | 0.00 | 0.00 | 0.00 | 64 | |
| 20260506153522 | 2 | 244 | 3.2 | 9.7 | 0.00 | 0.00 | 0.00 | 64 | |
| 20260506152530 | 2 | 249 | 4.8 | 12.9 | 0.00 | 0.00 | 0.00 | 65 | |
| 20260506151521 | 2 | 266 | 3.2 | 11.3 | 0.00 | 0.00 | 0.00 | 66 | |
| 20260506150531 | 2 | 233 | 3.2 | 9.7 | 0.00 | 0.00 | 0.00 | 66 | |
| 20260506145521 | 2 | 318 | 4.8 | 14.5 | 0.00 | 0.00 | 0.00 | 66 | |
| 20260506144529 | 2 | 267 | 4.8 | 12.9 | 0.00 | 0.00 | 0.00 | 67 | |
| 20260506143522 | 2 | 235 | 3.2 | 9.7 | 0.00 | 0.00 | 0.00 | 69 | |
| 20260506142530 | 2 | 252 | 3.2 | 9.7 | 0.00 | 0.00 | 0.00 | 69 | |
| 20260506141522 | 2 | 264 | 3.2 | 8.0 | 0.00 | 0.00 | 0.00 | 70 | |
| 20260506140530 | 1 | 243 | 1.6 | 8.0 | 0.00 | 0.00 | 0.00 | 71 | |
| 20260506135522 | 1 | 294 | 3.2 | 11.3 | 0.00 | 0.00 | 0.00 | 69 | |
| 20260506134530 | 1 | 334 | 1.6 | 8.0 | 0.00 | 0.00 | 0.00 | 67 | |
| 20260506133535 | 1 | 311 | 3.2 | 9.7 | 0.00 | 0.00 | 0.00 | 65 | |
| 20260506132530 | 1 | 289 | 3.2 | 9.7 | 0.00 | 0.00 | 0.00 | 63 | |
| 20260506131522 | 1 | 333 | 3.2 | 9.7 | 0.00 | 0.00 | 0.00 | 62 | |
| 20260506130530 | 1 | 318 | 1.6 | 8.0 | 0.00 | 0.00 | 0.00 | 61 | |
| 20260506125522 | 1 | 307 | 1.6 | 8.0 | 0.00 | 0.00 | 0.00 | 60 | |
| 20260506124530 | 1 | 322 | 1.6 | 4.8 | 0.00 | 0.00 | 0.00 | 60 | |
| 20260506123522 | 1 | 237 | 1.6 | 3.2 | 0.00 | 0.00 | 0.00 | 61 | |
| 20260506122530 | 1 | 224 | 1.6 | 4.8 | 0.00 | 0.00 | 0.00 | 60 | |
| 20260506121524 | 1 | 239 | 1.6 | 9.7 | 0.00 | 0.00 | 0.00 | 60 | |
| 20260506120530 | 0 | 268 | 1.6 | 11.3 | 0.00 | 0.00 | 0.00 | 61 | |
| 20260506115522 | 0 | 245 | 1.6 | 8.0 | 0.00 | 0.00 | 0.00 | 62 | |
| 20260506114530 | 0 | 273 | 1.6 | 8.0 | 0.00 | 0.00 | 0.00 | 65 | |
| 20260506113522 | 0 | 321 | 1.6 | 11.3 | 0.00 | 0.00 | 0.00 | 66 | |
| 20260506112550 | 0 | 286 | 1.6 | 8.0 | 0.00 | 0.00 | 0.00 | 67 | |
| 20260506111524 | 0 | 303 | 1.6 | 8.0 | 0.00 | 0.00 | 0.00 | 67 | |
| 20260506110530 | 0 | 333 | 3.2 | 11.3 | 0.00 | 0.00 | 0.00 | 67 | |
| 20260506105522 | 0 | 344 | 0.0 | 4.8 | 0.00 | 0.00 | 0.00 | 67 | |
| 20260506104550 | 0 | 256 | 0.0 | 4.8 | 0.00 | 0.00 | 0.00 | 67 | |
| 20260506103542 | 0 | 354 | 1.6 | 4.8 | 0.00 | 0.00 | 0.00 | 66 | |
| 20260506102530 | 0 | 345 | 0.0 | 8.0 | 0.00 | 0.00 | 0.00 | 67 | |
| 20260506101522 | 0 | 281 | 0.0 | 3.2 | 0.00 | 0.00 | 0.00 | 67 | |
| 20260506100530 | 0 | 245 | 0.0 | 4.8 | 0.00 | 0.00 | 0.00 | 67 | |
| 20260506095522 | 0 | 265 | 0.0 | 4.8 | 0.00 | 0.00 | 0.00 | 69 | |
| 20260506094530 | 0 | 251 | 0.0 | 1.6 | 0.00 | 0.00 | 0.00 | 71 | |
| 20260506093523 | 0 | 309 | 1.6 | 3.2 | 0.00 | 0.00 | 0.00 | 71 | |
| 20260506092530 | 0 | 288 | 0.0 | 3.2 | 0.00 | 0.00 | 0.00 | 71 | |
| 20260506091522 | 0 | 0.0 | 0.0 | 0.00 | 0.00 | 0.00 | 72 | ||
| 20260506090531 | 0 | 268 | 0.0 | 1.6 | 0.00 | 0.00 | 0.00 | 71 | |
| 20260506085544 | 0 | 300 | 1.6 | 3.2 | 0.00 | 0.00 | 0.00 | 70 | |
| 20260506084530 | 0 | 274 | 0.0 | 3.2 | 0.00 | 0.00 | 0.00 | 70 |